Time;durP1;ratioP1;P1;durP2;ratioP2;P2;SDS_P1;SDS_P2;PMS_P1;PMS_P2;Temp;Humidity;BMP_temperature;BMP_pressure;BME280_temperature;BME280_humidity;BME280_pressure;Samples;Min_cycle;Max_cycle;Signal;HPM_P1;HPM_P2
2023/03/16 00:01:16;;;;;;;;;;;5.00;88.90;;;;;;5085048;28;19928;-78
2023/03/16 00:03:42;;;;;;;;;;;4.90;88.90;;;;;;5071873;28;19929;-76
2023/03/16 00:06:09;;;;;;;;;;;4.90;88.90;;;;;;5074523;28;19928;-77
2023/03/16 00:08:35;;;;;;;;;;;4.90;88.90;;;;;;5074719;28;19935;-78
2023/03/16 00:11:02;;;;;;;;;;;4.90;89.00;;;;;;5077192;28;19928;-79
2023/03/16 00:13:29;;;;;;;;;;;4.90;89.00;;;;;;5070555;28;19937;-78
2023/03/16 00:15:58;;;;;;;;;;;4.80;89.00;;;;;;5088711;28;19939;-76
2023/03/16 00:18:26;;;;;;;;;;;4.80;89.00;;;;;;5095274;28;19932;-77
2023/03/16 00:20:54;;;;;;;;;;;4.80;89.00;;;;;;5096669;28;20060;-76
2023/03/16 00:23:25;;;;;;;;;;;4.80;89.10;;;;;;5097290;28;19951;-76
2023/03/16 00:25:52;;;;;;;;;;;4.80;89.10;;;;;;5098505;28;19928;-76
2023/03/16 00:28:19;;;;;;;;;;;4.70;89.00;;;;;;5099690;28;19928;-77
2023/03/16 00:30:46;;;;;;;;;;;4.70;89.10;;;;;;5090903;28;19928;-77
2023/03/16 00:33:14;;;;;;;;;;;4.70;89.10;;;;;;5094541;27;20016;-76
2023/03/16 00:35:49;;;;;;;;;;;4.70;89.10;;;;;;5094383;28;19939;-77
2023/03/16 00:38:16;;;;;;;;;;;4.60;89.80;;;;;;5100313;27;20415;-78
2023/03/16 00:40:42;;;;;;;;;;;4.70;89.20;;;;;;5098315;28;19944;-78
2023/03/16 00:43:09;;;;;;;;;;;4.60;89.10;;;;;;5100455;27;19931;-77
2023/03/16 00:45:36;;;;;;;;;;;4.60;89.10;;;;;;5098260;28;19932;-77
2023/03/16 00:48:02;;;;;;;;;;;4.60;89.10;;;;;;5104360;28;19932;-79
2023/03/16 00:50:30;;;;;;;;;;;4.60;89.20;;;;;;5097223;28;19938;-78
2023/03/16 00:52:57;;;;;;;;;;;4.60;89.20;;;;;;5092284;28;19932;-77
2023/03/16 00:55:23;;;;;;;;;;;4.60;89.20;;;;;;5091063;28;19935;-77
2023/03/16 00:57:50;;;;;;;;;;;4.60;89.30;;;;;;5090855;28;19935;-77
2023/03/16 01:00:19;;;;;;;;;;;4.50;89.20;;;;;;5091380;27;20382;-78
2023/03/16 01:02:46;;;;;;;;;;;4.50;89.30;;;;;;5096359;28;19927;-77
2023/03/16 01:05:13;;;;;;;;;;;4.50;89.30;;;;;;5094228;28;19934;-77
2023/03/16 01:07:41;;;;;;;;;;;4.50;89.30;;;;;;5098987;28;19928;-77
2023/03/16 01:10:09;;;;;;;;;;;4.50;89.30;;;;;;5096514;28;19988;-77
2023/03/16 01:12:35;;;;;;;;;;;4.40;89.30;;;;;;5091106;28;19928;-78
2023/03/16 01:15:02;;;;;;;;;;;4.40;89.30;;;;;;5094912;27;19928;-78
2023/03/16 01:17:29;;;;;;;;;;;4.40;89.40;;;;;;5091249;28;20428;-76
2023/03/16 01:19:55;;;;;;;;;;;4.40;89.40;;;;;;5095176;28;19931;-77
2023/03/16 01:22:22;;;;;;;;;;;4.30;89.30;;;;;;5093025;28;19931;-76
2023/03/16 01:24:50;;;;;;;;;;;4.30;89.30;;;;;;5096691;28;19936;-78
2023/03/16 01:27:16;;;;;;;;;;;4.40;89.40;;;;;;5093100;28;20274;-77
2023/03/16 01:29:43;;;;;;;;;;;4.30;89.40;;;;;;5090265;28;20593;-78
2023/03/16 01:32:10;;;;;;;;;;;4.30;89.40;;;;;;5091961;28;19932;-77
2023/03/16 01:34:37;;;;;;;;;;;4.30;89.40;;;;;;5093112;28;19977;-78
2023/03/16 01:37:04;;;;;;;;;;;4.30;89.40;;;;;;5099757;28;19928;-80
2023/03/16 01:39:30;;;;;;;;;;;4.20;89.40;;;;;;5094989;28;20541;-78
2023/03/16 01:41:58;;;;;;;;;;;4.20;89.40;;;;;;5096114;28;19939;-76
2023/03/16 01:44:29;;;;;;;;;;;4.20;89.50;;;;;;5101172;28;20034;-79
2023/03/16 01:46:55;;;;;;;;;;;4.20;89.50;;;;;;5097059;28;19942;-78
2023/03/16 01:49:24;;;;;;;;;;;4.20;89.50;;;;;;5091965;28;19928;-76
2023/03/16 01:51:53;;;;;;;;;;;4.20;89.50;;;;;;5094743;28;19928;-77
2023/03/16 01:54:25;;;;;;;;;;;4.10;89.40;;;;;;5091431;28;19940;-77
2023/03/16 01:56:54;;;;;;;;;;;4.10;89.50;;;;;;5095504;28;19936;-77
2023/03/16 01:59:25;;;;;;;;;;;4.10;89.50;;;;;;5090292;28;19927;-77
2023/03/16 02:01:52;;;;;;;;;;;4.10;89.60;;;;;;5091425;28;20005;-77
2023/03/16 02:04:31;;;;;;;;;;;4.10;89.60;;;;;;5094855;28;20010;-77
2023/03/16 02:06:57;;;;;;;;;;;4.00;89.50;;;;;;5098014;28;19932;-76
2023/03/16 02:09:26;;;;;;;;;;;4.00;89.50;;;;;;5097794;28;20146;-76
2023/03/16 02:11:53;;;;;;;;;;;4.00;89.50;;;;;;5089584;28;21799;-76
2023/03/16 02:14:20;;;;;;;;;;;4.00;89.60;;;;;;5095523;28;19935;-76
2023/03/16 02:16:48;;;;;;;;;;;4.00;89.60;;;;;;5095093;28;19927;-77
2023/03/16 02:19:16;;;;;;;;;;;3.90;89.60;;;;;;5099627;28;19928;-78
2023/03/16 02:21:47;;;;;;;;;;;3.90;89.60;;;;;;5097690;28;19932;-79
2023/03/16 02:24:13;;;;;;;;;;;3.90;89.60;;;;;;5097528;28;20283;-79
2023/03/16 02:26:43;;;;;;;;;;;3.90;89.70;;;;;;5100914;28;20636;-77
2023/03/16 02:29:14;;;;;;;;;;;3.90;89.70;;;;;;5104815;28;19934;-77
2023/03/16 02:31:41;;;;;;;;;;;3.90;89.80;;;;;;5102171;28;19928;-78
2023/03/16 02:34:09;;;;;;;;;;;3.90;89.80;;;;;;5102154;28;19927;-77
2023/03/16 02:36:36;;;;;;;;;;;3.80;89.80;;;;;;5100984;28;20384;-78
2023/03/16 02:39:04;;;;;;;;;;;3.80;89.80;;;;;;5080866;28;19932;-77
2023/03/16 02:41:31;;;;;;;;;;;3.80;89.90;;;;;;5080942;28;19928;-77
2023/03/16 02:44:01;;;;;;;;;;;3.80;89.90;;;;;;5105483;28;19924;-77
2023/03/16 02:46:28;;;;;;;;;;;3.80;89.90;;;;;;5106064;27;20031;-77
2023/03/16 02:49:01;;;;;;;;;;;3.80;90.00;;;;;;5110330;27;19927;-79
2023/03/16 02:51:28;;;;;;;;;;;3.80;90.00;;;;;;5101856;28;19931;-78
2023/03/16 02:53:54;;;;;;;;;;;3.70;89.90;;;;;;5104911;27;20699;-77
2023/03/16 02:56:21;;;;;;;;;;;3.70;89.90;;;;;;5104949;28;19924;-77
2023/03/16 02:58:48;;;;;;;;;;;3.70;90.00;;;;;;5100776;27;19931;-76
2023/03/16 03:01:14;;;;;;;;;;;3.70;90.00;;;;;;5106890;28;20072;-79
2023/03/16 03:03:42;;;;;;;;;;;3.70;90.00;;;;;;5096339;27;19932;-78
2023/03/16 03:06:10;;;;;;;;;;;3.70;90.00;;;;;;5104801;28;19959;-77
2023/03/16 03:08:37;;;;;;;;;;;3.60;90.00;;;;;;5104766;27;19985;-79
2023/03/16 03:11:04;;;;;;;;;;;3.60;90.00;;;;;;5109504;28;19927;-79
2023/03/16 03:13:30;;;;;;;;;;;3.60;90.00;;;;;;5106719;27;19958;-77
2023/03/16 03:15:57;;;;;;;;;;;3.60;90.00;;;;;;5102454;27;20396;-78
2023/03/16 03:18:24;;;;;;;;;;;3.50;90.00;;;;;;5097349;27;19932;-76
2023/03/16 03:20:50;;;;;;;;;;;3.50;90.00;;;;;;5100513;28;20642;-77
2023/03/16 03:23:18;;;;;;;;;;;3.50;90.00;;;;;;5098772;27;20537;-78
2023/03/16 03:25:46;;;;;;;;;;;3.50;90.00;;;;;;5101655;27;19982;-78
2023/03/16 03:28:13;;;;;;;;;;;3.50;90.00;;;;;;5097375;28;19927;-78
2023/03/16 03:30:40;;;;;;;;;;;3.50;90.10;;;;;;5102769;27;20021;-77
2023/03/16 03:33:07;;;;;;;;;;;3.50;90.10;;;;;;5095375;27;19954;-78
2023/03/16 03:35:33;;;;;;;;;;;3.50;90.10;;;;;;5103577;27;19973;-78
2023/03/16 03:38:00;;;;;;;;;;;3.50;90.10;;;;;;5095156;28;19928;-78
2023/03/16 03:40:28;;;;;;;;;;;3.50;90.10;;;;;;5094476;28;19936;-77
2023/03/16 03:42:54;;;;;;;;;;;3.40;90.10;;;;;;5095168;28;19928;-77
2023/03/16 03:45:21;;;;;;;;;;;3.50;90.10;;;;;;5102626;27;19950;-77
2023/03/16 03:47:48;;;;;;;;;;;3.40;90.10;;;;;;5099901;27;20564;-79
2023/03/16 03:50:14;;;;;;;;;;;3.40;90.10;;;;;;5102781;27;19950;-79
2023/03/16 03:52:41;;;;;;;;;;;3.40;90.10;;;;;;5106265;27;20152;-79
2023/03/16 03:55:08;;;;;;;;;;;3.40;90.20;;;;;;5105248;27;19928;-79
2023/03/16 03:57:36;;;;;;;;;;;3.40;90.20;;;;;;5099003;28;20397;-78
2023/03/16 04:00:06;;;;;;;;;;;3.40;90.20;;;;;;5102679;27;20384;-77
2023/03/16 04:02:33;;;;;;;;;;;3.40;90.20;;;;;;5100010;28;19927;-78
2023/03/16 04:04:59;;;;;;;;;;;3.30;90.20;;;;;;5097418;27;19936;-77
2023/03/16 04:07:26;;;;;;;;;;;3.30;90.20;;;;;;5102871;28;19947;-78
2023/03/16 04:09:52;;;;;;;;;;;3.30;90.20;;;;;;5098545;27;19967;-77
2023/03/16 04:12:19;;;;;;;;;;;3.30;90.20;;;;;;5096855;28;20348;-78
2023/03/16 04:14:47;;;;;;;;;;;3.30;90.20;;;;;;5099807;28;20012;-79
2023/03/16 04:17:13;;;;;;;;;;;3.30;90.20;;;;;;5104428;27;19932;-78
2023/03/16 04:19:40;;;;;;;;;;;3.30;90.20;;;;;;5106770;28;19927;-78
2023/03/16 04:22:07;;;;;;;;;;;3.20;90.20;;;;;;5105748;27;19934;-78
2023/03/16 04:24:34;;;;;;;;;;;3.20;90.20;;;;;;5102200;27;19932;-78
2023/03/16 04:27:01;;;;;;;;;;;3.30;90.30;;;;;;5100123;28;19936;-79
2023/03/16 04:29:28;;;;;;;;;;;3.20;90.30;;;;;;5098893;28;19932;-77
2023/03/16 04:31:56;;;;;;;;;;;3.20;90.30;;;;;;5093391;28;20306;-74
2023/03/16 04:34:23;;;;;;;;;;;3.20;90.30;;;;;;5099059;27;20402;-77
2023/03/16 04:36:50;;;;;;;;;;;3.20;90.30;;;;;;5094109;27;19941;-79
2023/03/16 04:39:17;;;;;;;;;;;3.20;90.30;;;;;;5098588;27;19935;-78
2023/03/16 04:41:44;;;;;;;;;;;3.20;90.30;;;;;;5098364;28;19927;-78
2023/03/16 04:44:10;;;;;;;;;;;3.10;90.30;;;;;;5100244;28;19927;-77
2023/03/16 04:46:37;;;;;;;;;;;3.10;90.30;;;;;;5103489;27;19988;-77
2023/03/16 04:49:08;;;;;;;;;;;3.10;90.30;;;;;;5105651;28;19928;-79
2023/03/16 04:51:35;;;;;;;;;;;3.10;90.30;;;;;;5102272;28;20408;-77
2023/03/16 04:54:01;;;;;;;;;;;3.10;90.30;;;;;;5097389;27;20245;-78
2023/03/16 04:56:28;;;;;;;;;;;3.10;90.30;;;;;;5098918;27;19932;-76
2023/03/16 04:58:55;;;;;;;;;;;3.10;90.30;;;;;;5099746;28;19938;-76
2023/03/16 05:01:22;;;;;;;;;;;3.00;90.30;;;;;;5099469;28;19934;-77
2023/03/16 05:03:49;;;;;;;;;;;3.10;90.30;;;;;;5101715;27;19962;-79
2023/03/16 05:06:17;;;;;;;;;;;3.00;90.30;;;;;;5097802;28;20027;-77
2023/03/16 05:08:44;;;;;;;;;;;3.00;90.30;;;;;;5101526;28;19932;-79
2023/03/16 05:11:10;;;;;;;;;;;3.00;90.30;;;;;;5094358;28;19927;-77
2023/03/16 05:13:37;;;;;;;;;;;3.00;90.30;;;;;;5100886;27;19958;-79
2023/03/16 05:16:04;;;;;;;;;;;3.00;90.30;;;;;;5102950;27;19935;-78
2023/03/16 05:18:32;;;;;;;;;;;2.90;90.30;;;;;;5096221;28;19928;-78
2023/03/16 05:20:59;;;;;;;;;;;2.90;90.30;;;;;;5098839;28;20044;-76
2023/03/16 05:23:26;;;;;;;;;;;2.90;90.40;;;;;;5106682;27;19932;-77
2023/03/16 05:25:53;;;;;;;;;;;2.90;90.40;;;;;;5105151;28;19928;-77
2023/03/16 05:28:20;;;;;;;;;;;2.90;90.40;;;;;;5104425;28;19935;-78
2023/03/16 05:30:46;;;;;;;;;;;2.90;90.40;;;;;;5094154;28;20049;-79
2023/03/16 05:33:13;;;;;;;;;;;2.90;90.40;;;;;;5098944;28;19970;-78
2023/03/16 05:35:39;;;;;;;;;;;2.90;90.40;;;;;;5096367;28;19932;-78
2023/03/16 05:38:06;;;;;;;;;;;2.90;90.40;;;;;;5098751;28;19993;-78
2023/03/16 05:40:34;;;;;;;;;;;2.90;90.40;;;;;;5093512;28;20040;-78
2023/03/16 05:43:01;;;;;;;;;;;2.80;90.40;;;;;;5092983;28;19928;-79
2023/03/16 05:45:27;;;;;;;;;;;2.80;90.40;;;;;;5097187;28;19953;-77
2023/03/16 05:47:54;;;;;;;;;;;2.80;90.40;;;;;;5096454;28;19981;-79
2023/03/16 05:50:20;;;;;;;;;;;2.80;90.40;;;;;;5096293;28;19927;-78
2023/03/16 05:52:47;;;;;;;;;;;2.80;90.50;;;;;;5097822;28;19927;-79
2023/03/16 05:55:15;;;;;;;;;;;2.80;90.50;;;;;;5092335;28;19932;-79
2023/03/16 05:57:43;;;;;;;;;;;2.80;90.50;;;;;;5090444;28;19943;-77
2023/03/16 06:00:13;;;;;;;;;;;2.80;90.50;;;;;;5094926;28;19957;-79
2023/03/16 06:02:40;;;;;;;;;;;2.70;90.50;;;;;;5084852;27;19971;-76
2023/03/16 06:05:07;;;;;;;;;;;2.70;90.40;;;;;;5099293;28;19931;-79
2023/03/16 06:07:34;;;;;;;;;;;2.50;90.80;;;;;;5098961;28;20703;-76
2023/03/16 06:10:01;;;;;;;;;;;2.40;91.40;;;;;;5097391;27;19935;-76
2023/03/16 06:12:27;;;;;;;;;;;2.30;91.60;;;;;;5100518;28;20001;-75
2023/03/16 06:14:55;;;;;;;;;;;2.30;91.60;;;;;;5098883;28;19928;-79
2023/03/16 06:17:21;;;;;;;;;;;2.40;91.60;;;;;;5097088;27;19928;-77
2023/03/16 06:19:48;;;;;;;;;;;2.40;91.50;;;;;;5102283;28;19935;-78
2023/03/16 06:22:14;;;;;;;;;;;2.40;91.40;;;;;;5098814;28;19935;-79
2023/03/16 06:24:41;;;;;;;;;;;2.50;91.40;;;;;;5101950;27;20487;-77
2023/03/16 06:27:08;;;;;;;;;;;2.50;91.30;;;;;;5106154;28;20021;-78
2023/03/16 06:29:34;;;;;;;;;;;2.50;91.20;;;;;;5099974;28;20333;-80
2023/03/16 06:32:02;;;;;;;;;;;2.50;91.10;;;;;;5104781;27;19928;-78
2023/03/16 06:34:29;;;;;;;;;;;2.50;91.10;;;;;;5100645;28;20523;-78
2023/03/16 06:36:55;;;;;;;;;;;2.50;91.00;;;;;;5101247;28;19932;-78
2023/03/16 06:39:22;;;;;;;;;;;2.50;91.00;;;;;;5097813;28;19935;-77
2023/03/16 06:41:49;;;;;;;;;;;2.50;91.00;;;;;;5091785;27;19935;-78
2023/03/16 06:44:15;;;;;;;;;;;2.50;91.30;;;;;;5099876;28;20063;-79
2023/03/16 06:46:42;;;;;;;;;;;2.50;91.00;;;;;;5092158;27;19985;-78
2023/03/16 06:49:10;;;;;;;;;;;2.50;91.00;;;;;;5105761;27;19932;-77
2023/03/16 06:51:36;;;;;;;;;;;2.50;91.00;;;;;;5100756;28;19958;-79
2023/03/16 06:54:03;;;;;;;;;;;2.50;91.00;;;;;;5093783;28;19940;-80
2023/03/16 06:56:30;;;;;;;;;;;2.50;91.00;;;;;;5103675;28;19927;-80
2023/03/16 06:58:57;;;;;;;;;;;2.50;91.00;;;;;;5095788;28;19928;-76
2023/03/16 07:01:24;;;;;;;;;;;2.50;91.00;;;;;;5102141;28;19935;-77
2023/03/16 07:03:50;;;;;;;;;;;2.50;91.20;;;;;;5099817;28;20596;-77
2023/03/16 07:06:18;;;;;;;;;;;2.50;91.00;;;;;;5097458;27;20347;-78
2023/03/16 07:08:45;;;;;;;;;;;2.50;91.30;;;;;;5093067;28;20374;-78
2023/03/16 07:11:11;;;;;;;;;;;2.50;91.00;;;;;;5099827;28;20058;-78
2023/03/16 07:13:38;;;;;;;;;;;2.50;91.10;;;;;;5099619;28;19932;-78
2023/03/16 07:16:04;;;;;;;;;;;2.50;91.10;;;;;;5100035;27;19928;-78
2023/03/16 07:18:31;;;;;;;;;;;2.50;91.10;;;;;;5096017;28;20018;-77
2023/03/16 07:20:58;;;;;;;;;;;2.50;91.20;;;;;;5100423;27;19981;-80
2023/03/16 07:23:26;;;;;;;;;;;2.50;91.20;;;;;;5096473;27;19950;-79
2023/03/16 07:25:52;;;;;;;;;;;2.50;91.20;;;;;;5103062;28;19932;-78
2023/03/16 07:28:19;;;;;;;;;;;2.50;91.20;;;;;;5099003;27;20094;-79
2023/03/16 07:30:46;;;;;;;;;;;2.50;91.20;;;;;;5102387;27;19927;-80
2023/03/16 07:33:13;;;;;;;;;;;2.50;91.30;;;;;;5095416;27;19946;-76
2023/03/16 07:35:40;;;;;;;;;;;2.40;91.30;;;;;;5070676;28;19939;-75
2023/03/16 07:38:08;;;;;;;;;;;2.50;91.30;;;;;;5069495;27;19932;-77
2023/03/16 07:40:36;;;;;;;;;;;2.40;91.30;;;;;;5095500;28;19989;-81
2023/03/16 07:43:03;;;;;;;;;;;2.40;91.40;;;;;;5093269;28;19935;-81
2023/03/16 07:45:30;;;;;;;;;;;2.40;91.40;;;;;;5097741;28;19992;-80
2023/03/16 07:47:56;;;;;;;;;;;2.40;91.40;;;;;;5094238;27;19986;-80
2023/03/16 07:50:23;;;;;;;;;;;2.40;91.50;;;;;;5097818;27;19953;-78
2023/03/16 07:52:49;;;;;;;;;;;2.50;91.50;;;;;;5094693;28;19976;-80
2023/03/16 07:55:16;;;;;;;;;;;2.50;91.50;;;;;;5092335;28;19931;-81
2023/03/16 07:57:46;;;;;;;;;;;2.50;91.60;;;;;;5091738;28;19928;-79
2023/03/16 08:00:13;;;;;;;;;;;2.50;91.60;;;;;;5092549;28;19928;-81
2023/03/16 08:02:40;;;;;;;;;;;2.50;91.60;;;;;;5086292;28;19986;-80
2023/03/16 08:05:09;;;;;;;;;;;2.50;91.60;;;;;;5090987;27;19977;-80
2023/03/16 08:07:36;;;;;;;;;;;2.50;91.60;;;;;;5097742;28;20397;-78
2023/03/16 08:10:02;;;;;;;;;;;2.50;91.60;;;;;;5092092;28;19935;-78
2023/03/16 08:12:29;;;;;;;;;;;2.50;91.60;;;;;;5093579;28;19935;-78
2023/03/16 08:14:57;;;;;;;;;;;2.60;91.70;;;;;;5090711;28;19932;-79
2023/03/16 08:17:23;;;;;;;;;;;2.60;91.70;;;;;;5093356;28;19932;-80
2023/03/16 08:19:50;;;;;;;;;;;2.60;91.70;;;;;;5092760;28;19947;-79
2023/03/16 08:22:17;;;;;;;;;;;2.60;91.70;;;;;;5092379;28;19972;-78
2023/03/16 08:24:43;;;;;;;;;;;2.70;91.70;;;;;;5095927;27;20031;-79
2023/03/16 08:27:10;;;;;;;;;;;2.70;91.70;;;;;;5095142;28;19936;-79
2023/03/16 08:29:37;;;;;;;;;;;2.70;91.70;;;;;;5092937;28;21249;-78
2023/03/16 08:32:06;;;;;;;;;;;2.80;91.80;;;;;;5087737;28;20277;-79
2023/03/16 08:34:32;;;;;;;;;;;2.80;91.70;;;;;;5098679;27;20003;-78
2023/03/16 08:36:59;;;;;;;;;;;2.90;91.80;;;;;;5091136;28;20394;-79
2023/03/16 08:39:26;;;;;;;;;;;2.90;91.80;;;;;;5093026;28;19930;-78
2023/03/16 08:41:54;;;;;;;;;;;3.00;91.80;;;;;;5092190;28;19928;-78
2023/03/16 08:44:22;;;;;;;;;;;3.00;91.80;;;;;;5092008;28;19928;-77
2023/03/16 08:46:50;;;;;;;;;;;3.10;91.90;;;;;;5095173;28;20685;-81
2023/03/16 08:49:19;;;;;;;;;;;3.20;91.80;;;;;;5096355;28;19928;-79
2023/03/16 08:51:46;;;;;;;;;;;3.20;91.80;;;;;;5107847;28;20461;-80
2023/03/16 08:54:14;;;;;;;;;;;3.30;91.80;;;;;;5099099;28;20043;-82
2023/03/16 08:56:41;;;;;;;;;;;3.30;91.70;;;;;;5095573;28;19936;-78
2023/03/16 08:59:07;;;;;;;;;;;3.40;91.70;;;;;;5093286;28;20014;-78
2023/03/16 09:01:34;;;;;;;;;;;3.40;91.60;;;;;;5090021;28;19928;-79
2023/03/16 09:04:01;;;;;;;;;;;3.50;91.50;;;;;;5088845;28;19939;-76
2023/03/16 09:06:29;;;;;;;;;;;3.60;91.40;;;;;;5097632;28;19928;-78
2023/03/16 09:08:56;;;;;;;;;;;3.70;91.30;;;;;;5098123;27;19954;-79
2023/03/16 09:11:24;;;;;;;;;;;3.70;91.50;;;;;;5103877;28;19967;-79
2023/03/16 09:13:51;;;;;;;;;;;3.70;91.20;;;;;;5094216;27;19928;-77
2023/03/16 09:16:18;;;;;;;;;;;3.80;91.10;;;;;;5096166;28;19974;-78
2023/03/16 09:18:45;;;;;;;;;;;3.90;91.00;;;;;;5097034;28;20001;-78
2023/03/16 09:21:12;;;;;;;;;;;3.90;90.90;;;;;;5089263;28;19960;-77
2023/03/16 09:23:41;;;;;;;;;;;4.00;90.90;;;;;;5106074;28;20025;-78
2023/03/16 09:26:08;;;;;;;;;;;4.10;90.80;;;;;;5082307;28;19935;-79
2023/03/16 09:28:37;;;;;;;;;;;4.10;90.70;;;;;;5094729;28;19924;-79
2023/03/16 09:31:04;;;;;;;;;;;4.20;90.70;;;;;;5089597;28;19939;-79
2023/03/16 09:33:32;;;;;;;;;;;4.20;90.70;;;;;;5097688;28;19935;-79
2023/03/16 09:35:59;;;;;;;;;;;4.30;90.60;;;;;;5094708;28;19984;-75
2023/03/16 09:38:26;;;;;;;;;;;4.30;90.50;;;;;;5088982;28;19928;-79
2023/03/16 09:40:57;;;;;;;;;;;4.40;90.50;;;;;;5095181;28;19927;-78
2023/03/16 09:43:34;;;;;;;;;;;4.40;90.50;;;;;;5092659;28;19932;-80
2023/03/16 09:46:05;;;;;;;;;;;4.50;90.50;;;;;;5089974;28;19940;-79
2023/03/16 09:48:33;;;;;;;;;;;4.50;90.40;;;;;;5087646;28;20010;-75
2023/03/16 09:51:01;;;;;;;;;;;4.60;90.40;;;;;;5085454;28;20015;-79
2023/03/16 09:53:28;;;;;;;;;;;4.60;90.40;;;;;;5094000;28;19927;-77
2023/03/16 09:55:58;;;;;;;;;;;4.60;90.20;;;;;;5089581;28;20050;-79
2023/03/16 09:58:25;;;;;;;;;;;4.60;90.20;;;;;;5093005;28;20020;-78
2023/03/16 10:00:59;;;;;;;;;;;4.70;90.10;;;;;;5093906;28;20030;-77
2023/03/16 10:03:37;;;;;;;;;;;4.70;90.10;;;;;;5091747;28;19932;-74
2023/03/16 10:06:04;;;;;;;;;;;4.80;90.10;;;;;;5086623;28;20059;-77
2023/03/16 10:08:35;;;;;;;;;;;4.90;90.10;;;;;;5097989;28;19935;-74
2023/03/16 10:11:11;;;;;;;;;;;4.90;90.10;;;;;;5091495;28;20393;-80
2023/03/16 10:13:41;;;;;;;;;;;5.00;90.10;;;;;;5090233;28;19928;-78
2023/03/16 10:16:10;;;;;;;;;;;5.10;90.10;;;;;;5095392;28;19932;-77
2023/03/16 10:18:41;;;;;;;;;;;5.10;90.00;;;;;;5100402;28;19996;-77
2023/03/16 10:21:12;;;;;;;;;;;5.20;90.00;;;;;;5093488;28;20286;-79
2023/03/16 10:23:39;;;;;;;;;;;5.30;90.00;;;;;;5090665;28;19923;-79
2023/03/16 10:26:11;;;;;;;;;;;5.30;90.00;;;;;;5090459;28;19923;-78
2023/03/16 10:28:38;;;;;;;;;;;5.50;90.00;;;;;;5100730;28;19928;-79
2023/03/16 10:31:05;;;;;;;;;;;5.50;89.70;;;;;;5092417;28;19928;-80
2023/03/16 10:33:32;;;;;;;;;;;5.60;89.30;;;;;;5102847;28;19935;-77
2023/03/16 10:36:02;;;;;;;;;;;5.70;89.10;;;;;;5097821;28;19932;-77
2023/03/16 10:38:31;;;;;;;;;;;5.70;88.80;;;;;;5092108;28;19981;-79
2023/03/16 10:40:58;;;;;;;;;;;5.80;88.60;;;;;;5092032;28;19931;-78
2023/03/16 10:43:27;;;;;;;;;;;5.90;88.10;;;;;;5094861;28;19928;-78
2023/03/16 10:45:58;;;;;;;;;;;6.00;88.10;;;;;;5097012;28;19936;-78
2023/03/16 10:48:26;;;;;;;;;;;6.10;88.00;;;;;;5098102;28;19928;-78
2023/03/16 10:50:54;;;;;;;;;;;6.10;88.10;;;;;;5101466;28;20664;-76
2023/03/16 10:53:22;;;;;;;;;;;6.30;87.80;;;;;;5095740;28;20637;-78
2023/03/16 10:55:50;;;;;;;;;;;6.30;87.30;;;;;;5100480;27;20442;-78
2023/03/16 10:58:24;;;;;;;;;;;6.30;87.80;;;;;;5099619;27;19934;-76
2023/03/16 11:00:52;;;;;;;;;;;6.40;86.90;;;;;;5098699;28;19932;-76
2023/03/16 11:03:21;;;;;;;;;;;6.50;86.60;;;;;;5097606;28;19960;-78
2023/03/16 11:05:55;;;;;;;;;;;6.50;86.60;;;;;;5102154;27;20043;-79
2023/03/16 11:08:26;;;;;;;;;;;6.60;86.30;;;;;;5101953;28;20332;-78
2023/03/16 11:10:56;;;;;;;;;;;6.70;86.00;;;;;;5090543;28;19928;-77
2023/03/16 11:13:25;;;;;;;;;;;6.70;86.00;;;;;;5096745;27;20402;-74
2023/03/16 11:15:56;;;;;;;;;;;6.80;86.10;;;;;;5095361;28;20648;-77
2023/03/16 11:18:26;;;;;;;;;;;6.90;85.70;;;;;;5100279;28;20024;-78
2023/03/16 11:20:53;;;;;;;;;;;6.90;85.70;;;;;;5095722;27;20709;-77
2023/03/16 11:23:21;;;;;;;;;;;7.00;85.70;;;;;;5095840;27;19931;-77
2023/03/16 11:25:50;;;;;;;;;;;7.00;85.70;;;;;;5099456;28;19931;-77
2023/03/16 11:28:19;;;;;;;;;;;7.10;85.60;;;;;;5101428;27;19928;-79
2023/03/16 11:30:49;;;;;;;;;;;7.10;85.70;;;;;;5095460;28;20390;-79
2023/03/16 11:33:17;;;;;;;;;;;7.20;85.30;;;;;;5091664;28;19938;-79
2023/03/16 11:35:47;;;;;;;;;;;7.20;85.00;;;;;;5100386;28;19928;-79
2023/03/16 11:38:15;;;;;;;;;;;7.30;84.80;;;;;;5097185;28;19946;-79
2023/03/16 11:40:46;;;;;;;;;;;7.30;84.90;;;;;;5092934;28;19928;-79
2023/03/16 11:43:21;;;;;;;;;;;7.30;84.90;;;;;;5092160;28;20343;-78
2023/03/16 11:45:51;;;;;;;;;;;7.30;85.10;;;;;;5096878;27;19924;-79
2023/03/16 11:48:35;;;;;;;;;;;7.40;85.10;;;;;;5092242;28;19928;-78
2023/03/16 11:51:05;;;;;;;;;;;7.40;84.80;;;;;;5101564;28;19936;-77
2023/03/16 11:53:49;;;;;;;;;;;7.40;84.60;;;;;;5095500;28;19931;-78
2023/03/16 11:56:22;;;;;;;;;;;7.50;85.50;;;;;;5096823;28;19936;-79
2023/03/16 11:58:53;;;;;;;;;;;7.50;84.50;;;;;;5094961;28;19966;-78
2023/03/16 12:01:24;;;;;;;;;;;7.50;84.60;;;;;;5088916;28;19928;-76
2023/03/16 12:04:00;;;;;;;;;;;7.60;84.60;;;;;;5094797;28;19932;-78
2023/03/16 12:06:34;;;;;;;;;;;7.70;84.70;;;;;;5092351;28;19943;-78
2023/03/16 12:09:23;;;;;;;;;;;7.70;84.50;;;;;;5097944;27;20377;-75
2023/03/16 12:11:53;;;;;;;;;;;7.80;84.40;;;;;;5098452;28;19935;-77
2023/03/16 12:14:23;;;;;;;;;;;7.80;84.70;;;;;;5093017;28;19950;-77
2023/03/16 12:16:53;;;;;;;;;;;7.90;84.30;;;;;;5098239;28;19931;-74
2023/03/16 12:19:23;;;;;;;;;;;7.90;83.80;;;;;;5090357;27;20719;-78
2023/03/16 12:21:56;;;;;;;;;;;8.00;83.60;;;;;;5093155;27;19950;-78
2023/03/16 12:24:26;;;;;;;;;;;8.00;83.40;;;;;;5099772;27;19973;-77
2023/03/16 12:26:53;;;;;;;;;;;8.10;82.60;;;;;;5090317;28;20381;-75
2023/03/16 12:29:25;;;;;;;;;;;8.20;82.70;;;;;;5090087;28;19959;-75
2023/03/16 12:31:54;;;;;;;;;;;8.20;82.50;;;;;;5089960;28;20003;-74
2023/03/16 12:34:26;;;;;;;;;;;8.30;82.40;;;;;;5091658;28;20461;-75
2023/03/16 12:36:57;;;;;;;;;;;8.30;81.80;;;;;;5094250;28;20297;-74
2023/03/16 12:39:31;;;;;;;;;;;8.40;81.60;;;;;;5095903;28;19927;-74
2023/03/16 12:42:03;;;;;;;;;;;8.50;81.40;;;;;;5096420;28;19928;-73
2023/03/16 12:44:33;;;;;;;;;;;8.60;80.60;;;;;;5096883;27;19928;-76
2023/03/16 12:47:02;;;;;;;;;;;8.70;80.60;;;;;;5095655;28;19932;-76
2023/03/16 12:49:33;;;;;;;;;;;8.80;80.30;;;;;;5095323;28;19928;-74
2023/03/16 12:52:00;;;;;;;;;;;8.90;80.40;;;;;;5091048;27;19924;-77
2023/03/16 12:54:27;;;;;;;;;;;9.00;80.20;;;;;;5096696;28;19935;-77
2023/03/16 12:57:00;;;;;;;;;;;9.00;80.00;;;;;;5094923;28;19928;-75
2023/03/16 12:59:36;;;;;;;;;;;9.10;79.70;;;;;;5092765;28;19923;-75
2023/03/16 13:02:05;;;;;;;;;;;9.20;79.70;;;;;;5091557;28;20454;-78
2023/03/16 13:04:35;;;;;;;;;;;9.30;79.30;;;;;;5096078;28;19973;-77
2023/03/16 13:07:03;;;;;;;;;;;9.40;79.00;;;;;;5091586;28;19931;-76
2023/03/16 13:09:31;;;;;;;;;;;9.40;77.80;;;;;;5089534;28;19928;-77
2023/03/16 13:11:58;;;;;;;;;;;9.50;78.10;;;;;;5095136;28;20006;-75
2023/03/16 13:14:34;;;;;;;;;;;9.60;77.70;;;;;;5092885;28;20346;-74
2023/03/16 13:17:05;;;;;;;;;;;9.60;77.10;;;;;;5090311;28;20737;-75
2023/03/16 13:19:36;;;;;;;;;;;9.70;77.50;;;;;;5089261;28;19939;-77
2023/03/16 13:22:20;;;;;;;;;;;9.80;77.00;;;;;;5090563;28;19927;-75
2023/03/16 13:24:51;;;;;;;;;;;9.80;76.40;;;;;;5086302;27;19968;-77
2023/03/16 13:27:21;;;;;;;;;;;9.90;76.70;;;;;;5087934;28;20046;-77
2023/03/16 13:29:58;;;;;;;;;;;9.90;76.00;;;;;;5091130;28;19928;-78
2023/03/16 13:32:27;;;;;;;;;;;10.00;75.00;;;;;;5091465;28;19928;-75
2023/03/16 13:34:57;;;;;;;;;;;10.10;75.60;;;;;;5090206;28;19928;-75
2023/03/16 13:37:23;;;;;;;;;;;10.10;75.70;;;;;;5092311;28;19928;-74
2023/03/16 13:39:54;;;;;;;;;;;10.20;75.90;;;;;;5092553;28;19981;-75
2023/03/16 13:42:22;;;;;;;;;;;10.30;75.50;;;;;;5084879;28;19928;-74
2023/03/16 13:44:51;;;;;;;;;;;10.30;75.10;;;;;;5092533;28;19928;-77
2023/03/16 13:47:19;;;;;;;;;;;10.30;74.70;;;;;;5092448;28;19971;-78
2023/03/16 13:49:47;;;;;;;;;;;10.40;74.60;;;;;;5094501;28;19935;-75
2023/03/16 13:52:19;;;;;;;;;;;10.50;74.80;;;;;;5097673;28;19943;-75
2023/03/16 13:54:46;;;;;;;;;;;10.50;74.80;;;;;;5091183;28;19928;-78
2023/03/16 13:57:14;;;;;;;;;;;10.50;74.20;;;;;;5094634;28;20022;-78
2023/03/16 13:59:42;;;;;;;;;;;10.60;73.20;;;;;;5092806;28;20047;-78
2023/03/16 14:02:16;;;;;;;;;;;10.60;73.60;;;;;;5092465;28;20551;-75
2023/03/16 14:04:43;;;;;;;;;;;10.70;73.60;;;;;;5088630;28;20407;-77
2023/03/16 14:07:15;;;;;;;;;;;10.70;73.10;;;;;;5091229;28;19928;-76
2023/03/16 14:09:44;;;;;;;;;;;10.80;73.10;;;;;;5088103;28;19939;-77
2023/03/16 14:12:13;;;;;;;;;;;10.80;73.00;;;;;;5095135;28;19936;-78
2023/03/16 14:14:40;;;;;;;;;;;10.90;72.90;;;;;;5093434;28;20381;-75
2023/03/16 14:17:10;;;;;;;;;;;10.90;73.00;;;;;;5095162;28;20043;-76
2023/03/16 14:19:41;;;;;;;;;;;10.90;72.70;;;;;;5101091;28;19928;-75
2023/03/16 14:22:12;;;;;;;;;;;10.90;72.50;;;;;;5100312;28;20018;-76
2023/03/16 14:24:39;;;;;;;;;;;10.90;72.90;;;;;;5101386;27;19927;-75
2023/03/16 14:27:15;;;;;;;;;;;10.90;72.60;;;;;;5100251;28;20359;-74
2023/03/16 14:29:43;;;;;;;;;;;10.90;72.80;;;;;;5103282;28;20026;-75
2023/03/16 14:32:20;;;;;;;;;;;10.90;73.10;;;;;;5099638;28;19943;-75
2023/03/16 14:34:49;;;;;;;;;;;10.90;73.90;;;;;;5095049;28;19935;-76